Time;durP1;ratioP1;P1;durP2;ratioP2;P2;SDS_P1;SDS_P2;PMS_P1;PMS_P2;Temp;Humidity;BMP_temperature;BMP_pressure;BME280_temperature;BME280_humidity;BME280_pressure;Samples;Min_cycle;Max_cycle;Signal;HPM_P1;HPM_P2
2022/07/19 00:00:38;;;;;;;3.13;2.83;;;25.70;34.40;;;;;;20476;6846;307480;-90
2022/07/19 00:03:03;;;;;;;5.67;3.20;;;26.00;34.60;;;;;;20765;6839;117278;-90
2022/07/19 00:05:30;;;;;;;2.90;2.75;;;26.00;34.30;;;;;;20532;6854;296307;-90
2022/07/19 00:07:56;;;;;;;2.93;2.83;;;26.20;34.40;;;;;;20782;6839;117008;-88
2022/07/19 00:10:21;;;;;;;3.40;3.10;;;26.10;34.10;;;;;;20521;6857;308143;-90
2022/07/19 00:12:47;;;;;;;3.00;2.80;;;26.20;34.00;;;;;;20770;6847;119024;-89
2022/07/19 00:15:13;;;;;;;2.90;2.70;;;26.20;33.90;;;;;;20840;6839;117816;-91
2022/07/19 00:17:39;;;;;;;2.97;2.77;;;26.00;34.10;;;;;;20812;6854;66800;-92
2022/07/19 00:20:05;;;;;;;2.80;2.60;;;25.80;34.30;;;;;;20837;6839;116091;-90
2022/07/19 00:22:30;;;;;;;6.43;3.10;;;25.70;34.50;;;;;;20631;6839;309027;-90
2022/07/19 00:24:56;;;;;;;3.23;3.03;;;25.90;34.30;;;;;;20804;6854;116860;-91
2022/07/19 00:27:21;;;;;;;3.03;2.87;;;25.90;34.20;;;;;;20850;6839;120730;-90
2022/07/19 00:29:47;;;;;;;3.10;2.90;;;25.80;34.40;;;;;;20824;6854;116386;-91
2022/07/19 00:32:12;;;;;;;3.37;3.00;;;25.60;34.40;;;;;;20656;6839;277941;-91
2022/07/19 00:34:38;;;;;;;3.15;3.00;;;25.90;34.10;;;;;;20773;6854;117699;-87
2022/07/19 00:37:03;;;;;;;3.62;3.17;;;25.90;34.00;;;;;;20526;6854;281281;-87
2022/07/19 00:39:29;;;;;;;3.20;3.00;;;26.00;33.80;;;;;;20575;6839;294047;-87
2022/07/19 00:41:54;;;;;;;3.20;3.00;;;26.30;33.40;;;;;;20735;6854;117212;-87
2022/07/19 00:44:21;;;;;;;2.93;2.67;;;26.00;33.90;;;;;;20726;6854;118263;-88
2022/07/19 00:46:46;;;;;;;3.83;3.17;;;25.90;33.80;;;;;;20765;6839;119435;-91
2022/07/19 00:49:12;;;;;;;3.00;2.80;;;25.70;34.20;;;;;;20806;6854;116302;-92
2022/07/19 00:51:37;;;;;;;2.87;2.78;;;25.50;34.50;;;;;;20850;6839;119188;-90
2022/07/19 00:54:03;;;;;;;2.90;2.80;;;25.30;34.80;;;;;;20847;6839;116573;-91
2022/07/19 00:56:28;;;;;;;3.63;2.80;;;25.20;35.00;;;;;;20771;6854;121350;-91
2022/07/19 00:58:54;;;;;;;3.53;3.10;;;25.10;35.20;;;;;;20804;6854;67086;-91
2022/07/19 01:01:20;;;;;;;3.43;2.97;;;25.10;35.20;;;;;;20575;6839;310005;-88
2022/07/19 01:03:45;;;;;;;3.03;2.83;;;25.40;35.10;;;;;;20512;6854;310749;-90
2022/07/19 01:06:11;;;;;;;3.00;2.80;;;25.70;34.50;;;;;;20776;6837;119346;-90
2022/07/19 01:08:38;;;;;;;2.90;2.70;;;25.70;34.30;;;;;;20503;6853;278925;-90
2022/07/19 01:11:03;;;;;;;3.50;3.20;;;25.80;34.10;;;;;;20767;6839;118842;-88
2022/07/19 01:13:29;;;;;;;2.87;2.77;;;25.70;34.00;;;;;;20710;6857;119369;-89
2022/07/19 01:15:54;;;;;;;3.20;2.93;;;25.40;34.40;;;;;;20529;6846;307754;-88
2022/07/19 01:18:20;;;;;;;3.93;2.80;;;25.40;34.60;;;;;;20549;6846;338409;-89
2022/07/19 01:20:45;;;;;;;3.43;2.90;;;25.70;34.20;;;;;;20746;6846;117375;-87
2022/07/19 01:23:11;;;;;;;3.50;2.80;;;25.60;34.20;;;;;;20783;6839;119667;-88
2022/07/19 01:25:37;;;;;;;2.93;2.83;;;25.30;34.40;;;;;;20782;6839;118610;-89
2022/07/19 01:28:05;;;;;;;5.97;2.70;;;25.10;34.80;;;;;;20723;6857;117847;-88
2022/07/19 01:30:31;;;;;;;3.17;2.92;;;24.90;35.00;;;;;;20528;6847;335023;-89
2022/07/19 01:32:56;;;;;;;2.90;2.70;;;25.10;34.70;;;;;;20768;6839;117683;-89
2022/07/19 01:35:22;;;;;;;4.50;2.92;;;25.20;34.50;;;;;;20506;6854;308868;-88
2022/07/19 01:37:47;;;;;;;3.40;2.90;;;25.30;34.30;;;;;;20565;6839;278307;-89
2022/07/19 01:40:13;;;;;;;2.77;2.67;;;25.50;34.00;;;;;;20760;6839;117109;-87
2022/07/19 01:42:38;;;;;;;2.63;2.43;;;25.40;33.70;;;;;;20697;6854;143912;-88
2022/07/19 01:45:05;;;;;;;4.07;3.00;;;25.20;34.20;;;;;;20505;6854;307425;-90
2022/07/19 01:47:31;;;;;;;2.92;2.80;;;25.30;33.80;;;;;;20554;6839;336670;-87
2022/07/19 01:49:56;;;;;;;3.30;3.00;;;25.60;33.40;;;;;;20733;6854;118589;-90
2022/07/19 01:52:22;;;;;;;2.60;2.40;;;25.50;34.20;;;;;;20771;6839;117440;-87
2022/07/19 01:54:48;;;;;;;2.90;2.70;;;25.20;33.90;;;;;;20534;6839;278417;-88
2022/07/19 01:57:13;;;;;;;3.00;2.90;;;25.40;34.60;;;;;;20527;6854;278312;-87
2022/07/19 01:59:40;;;;;;;2.90;2.70;;;25.60;34.10;;;;;;20733;6854;118195;-87
2022/07/19 02:02:06;;;;;;;2.67;2.40;;;25.20;34.20;;;;;;20732;6854;118132;-87
2022/07/19 02:04:32;;;;;;;3.10;2.80;;;25.20;34.20;;;;;;20755;6839;117602;-87
2022/07/19 02:06:57;;;;;;;2.92;2.72;;;25.00;34.50;;;;;;20566;6857;307080;-90
2022/07/19 02:09:23;;;;;;;2.80;2.60;;;25.20;34.30;;;;;;20841;6847;66876;-87
2022/07/19 02:11:48;;;;;;;3.50;2.50;;;25.10;34.40;;;;;;20755;6846;117403;-87
2022/07/19 02:14:15;;;;;;;2.77;2.60;;;24.80;34.50;;;;;;20762;6839;117202;-87
2022/07/19 02:16:40;;;;;;;3.10;2.80;;;24.70;34.80;;;;;;20541;6837;285767;-87
2022/07/19 02:19:06;;;;;;;4.40;2.90;;;25.00;34.70;;;;;;20755;6845;118363;-86
2022/07/19 02:21:32;;;;;;;2.90;2.70;;;25.10;34.50;;;;;;20558;6839;308243;-85
2022/07/19 02:23:57;;;;;;;3.00;2.90;;;25.20;34.40;;;;;;20504;6854;310609;-88
2022/07/19 02:26:23;;;;;;;2.80;2.70;;;25.50;34.10;;;;;;20772;6839;118964;-86
2022/07/19 02:28:48;;;;;;;2.95;2.78;;;25.40;34.50;;;;;;20509;6854;310686;-87
2022/07/19 02:31:14;;;;;;;2.60;2.50;;;25.50;35.70;;;;;;20771;6839;117179;-86
2022/07/19 02:33:39;;;;;;;2.93;2.77;;;25.30;35.70;;;;;;20558;6839;298352;-86
2022/07/19 02:36:06;;;;;;;3.03;2.83;;;25.40;35.80;;;;;;20560;6839;290864;-86
2022/07/19 02:38:31;;;;;;;3.17;2.90;;;25.40;35.80;;;;;;20753;6839;120044;-86
2022/07/19 02:40:57;;;;;;;3.80;2.95;;;25.20;35.70;;;;;;20560;6839;277788;-88
2022/07/19 02:43:23;;;;;;;2.53;2.42;;;25.00;35.70;;;;;;20774;6839;119529;-88
2022/07/19 02:45:50;;;;;;;4.30;2.60;;;25.00;35.70;;;;;;20768;6839;118289;-89
2022/07/19 02:48:16;;;;;;;3.27;3.07;;;24.40;36.20;;;;;;20757;6839;117134;-86
2022/07/19 02:50:42;;;;;;;3.40;3.20;;;24.30;36.10;;;;;;20758;6839;118743;-86
2022/07/19 02:53:08;;;;;;;3.47;3.27;;;24.10;36.40;;;;;;20771;6839;117565;-90
2022/07/19 02:55:34;;;;;;;3.30;3.00;;;23.90;36.60;;;;;;20558;6839;306593;-87
2022/07/19 02:58:00;;;;;;;3.12;2.83;;;24.20;36.90;;;;;;20556;6839;341384;-89
2022/07/19 03:00:25;;;;;;;3.40;3.13;;;24.60;36.70;;;;;;20751;6839;117334;-86
2022/07/19 03:02:51;;;;;;;3.53;2.70;;;24.50;36.40;;;;;;20549;6839;306978;-86
2022/07/19 03:05:16;;;;;;;2.90;2.70;;;24.60;36.40;;;;;;20769;6839;118199;-86
2022/07/19 03:07:42;;;;;;;3.30;2.60;;;24.60;36.40;;;;;;20771;6839;119475;-86
2022/07/19 03:10:07;;;;;;;4.87;3.00;;;24.40;36.40;;;;;;20553;6839;309273;-86
2022/07/19 03:12:34;;;;;;;3.23;2.90;;;24.90;35.50;;;;;;20530;6839;306646;-85
2022/07/19 03:14:59;;;;;;;3.17;2.92;;;24.80;35.40;;;;;;20561;6839;309773;-86
2022/07/19 03:17:26;;;;;;;3.93;2.90;;;25.20;35.30;;;;;;20549;6839;309854;-88
2022/07/19 03:19:52;;;;;;;3.40;3.00;;;25.20;35.40;;;;;;20762;6839;118416;-86
2022/07/19 03:22:18;;;;;;;3.73;2.90;;;24.90;35.40;;;;;;20558;6839;305494;-87
2022/07/19 03:24:43;;;;;;;3.50;3.20;;;24.90;35.50;;;;;;20748;6839;118955;-87
2022/07/19 03:27:09;;;;;;;3.00;2.83;;;24.70;35.50;;;;;;20773;6839;118378;-88
2022/07/19 03:29:36;;;;;;;2.95;2.75;;;24.40;35.70;;;;;;20565;6837;277824;-88
2022/07/19 03:32:01;;;;;;;2.87;2.73;;;24.50;35.90;;;;;;20763;6838;119499;-87
2022/07/19 03:34:28;;;;;;;3.10;2.50;;;24.40;35.80;;;;;;20752;6839;119221;-87
2022/07/19 03:36:52;;;;;;;3.07;2.97;;;24.20;36.00;;;;;;20770;6839;117195;-86
2022/07/19 03:39:18;;;;;;;3.10;2.80;;;24.00;36.20;;;;;;20785;6839;121607;-86
2022/07/19 03:41:44;;;;;;;3.10;2.90;;;23.80;36.50;;;;;;20781;6839;117089;-87
2022/07/19 03:44:09;;;;;;;3.20;2.90;;;23.70;36.70;;;;;;20551;6839;279893;-86
2022/07/19 03:46:35;;;;;;;3.83;3.17;;;23.80;36.60;;;;;;20755;6839;118887;-87
2022/07/19 03:49:01;;;;;;;6.83;3.10;;;23.70;36.70;;;;;;20774;6839;117758;-87
2022/07/19 03:51:27;;;;;;;4.15;2.90;;;23.70;36.60;;;;;;20560;6839;336778;-89
2022/07/19 03:53:52;;;;;;;2.77;2.53;;;24.00;36.40;;;;;;20564;6839;279599;-90
2022/07/19 03:56:20;;;;;;;3.20;3.00;;;24.40;36.00;;;;;;20780;6839;117429;-87
2022/07/19 03:58:43;;;;;;;3.77;3.00;;;24.30;35.80;;;;;;20535;6839;307888;-89
2022/07/19 04:01:09;;;;;;;3.47;3.17;;;24.40;35.70;;;;;;20768;6839;118349;-87
2022/07/19 04:03:39;;;;;;;3.17;2.90;;;24.20;35.70;;;;;;20779;6839;118344;-86
2022/07/19 04:06:08;;;;;;;3.12;2.90;;;23.80;36.00;;;;;;20560;6839;308311;-86
2022/07/19 04:08:33;;;;;;;2.87;2.57;;;23.90;36.40;;;;;;20749;6839;117534;-86
2022/07/19 04:11:00;;;;;;;2.90;2.70;;;23.80;36.70;;;;;;20563;6839;307700;-87
2022/07/19 04:13:25;;;;;;;3.03;2.83;;;23.70;36.60;;;;;;20559;6839;306817;-88
2022/07/19 04:15:51;;;;;;;3.07;2.80;;;24.00;36.40;;;;;;20776;6839;117660;-88
2022/07/19 04:18:17;;;;;;;3.67;3.10;;;23.50;36.70;;;;;;20772;6839;120384;-86
2022/07/19 04:20:43;;;;;;;5.50;2.97;;;23.50;36.60;;;;;;20752;6839;118325;-87
2022/07/19 04:23:09;;;;;;;3.45;2.78;;;23.00;37.50;;;;;;20773;6839;120150;-88
2022/07/19 04:25:34;;;;;;;3.63;3.00;;;22.90;37.30;;;;;;20773;6839;117549;-89
2022/07/19 04:28:01;;;;;;;3.70;2.83;;;22.80;37.60;;;;;;20771;6839;117642;-89
2022/07/19 04:30:27;;;;;;;5.50;3.10;;;22.80;38.10;;;;;;20724;6839;119191;-86
2022/07/19 04:32:52;;;;;;;3.10;2.80;;;22.80;38.00;;;;;;20559;6839;306836;-85
2022/07/19 04:35:18;;;;;;;3.10;2.90;;;23.20;38.40;;;;;;20562;6839;307512;-86
2022/07/19 04:37:43;;;;;;;3.00;2.80;;;23.70;38.40;;;;;;20782;6839;117045;-85
2022/07/19 04:40:09;;;;;;;3.10;2.90;;;23.70;38.10;;;;;;20560;6837;308403;-86
2022/07/19 04:42:34;;;;;;;3.23;3.00;;;23.80;38.50;;;;;;20755;6838;117943;-86
2022/07/19 04:45:00;;;;;;;3.67;2.87;;;23.80;38.50;;;;;;20772;6839;118982;-86
2022/07/19 04:47:26;;;;;;;3.30;3.10;;;23.50;38.50;;;;;;20563;6839;299313;-86
2022/07/19 04:49:53;;;;;;;3.10;2.90;;;24.00;38.00;;;;;;20569;6839;278382;-86
2022/07/19 04:52:19;;;;;;;3.30;3.10;;;24.00;38.00;;;;;;20560;6839;307735;-85
2022/07/19 04:54:44;;;;;;;3.20;3.00;;;24.30;37.70;;;;;;20550;6839;280530;-86
2022/07/19 04:57:10;;;;;;;3.47;3.23;;;24.60;37.40;;;;;;20568;6839;307354;-86
2022/07/19 04:59:36;;;;;;;2.97;2.77;;;24.70;37.30;;;;;;20560;6839;307385;-87
2022/07/19 05:02:01;;;;;;;3.57;2.73;;;24.80;37.20;;;;;;20776;6839;118012;-85
2022/07/19 05:04:27;;;;;;;3.17;2.97;;;24.60;37.20;;;;;;20538;6839;279355;-87
2022/07/19 05:06:56;;;;;;;2.92;2.72;;;24.70;37.30;;;;;;20790;6839;117631;-86
2022/07/19 05:09:19;;;;;;;3.75;2.95;;;24.50;37.20;;;;;;20550;6839;295008;-85
2022/07/19 05:11:45;;;;;;;5.87;3.20;;;24.60;37.00;;;;;;20565;6839;295365;-85
2022/07/19 05:14:11;;;;;;;4.40;3.00;;;24.90;36.90;;;;;;20561;6839;306829;-86
2022/07/19 05:16:37;;;;;;;2.77;2.57;;;24.90;36.60;;;;;;20760;6839;118741;-89
2022/07/19 05:19:03;;;;;;;3.30;3.00;;;24.90;36.60;;;;;;20571;6839;337160;-86
2022/07/19 05:21:28;;;;;;;7.15;3.30;;;24.90;37.00;;;;;;20563;6839;310708;-87
2022/07/19 05:23:54;;;;;;;3.45;3.12;;;25.10;37.10;;;;;;20567;6839;339142;-86
2022/07/19 05:26:20;;;;;;;4.23;2.90;;;25.10;37.20;;;;;;20783;6839;117533;-87
2022/07/19 05:28:47;;;;;;;3.45;3.05;;;25.10;38.00;;;;;;20540;6839;306808;-85
2022/07/19 05:31:12;;;;;;;5.37;2.93;;;25.10;37.90;;;;;;20769;6839;117280;-86
2022/07/19 05:33:38;;;;;;;3.13;2.80;;;24.90;37.90;;;;;;20554;6839;308988;-87
2022/07/19 05:36:03;;;;;;;3.37;2.87;;;25.00;38.30;;;;;;20765;6839;117351;-86
2022/07/19 05:38:34;;;;;;;2.90;2.80;;;24.90;38.20;;;;;;20751;6839;119043;-84
2022/07/19 05:40:56;;;;;;;2.97;2.67;;;24.60;38.40;;;;;;20760;6839;117280;-85
2022/07/19 05:43:22;;;;;;;2.97;2.80;;;24.70;39.40;;;;;;20563;6839;278621;-84
2022/07/19 05:45:47;;;;;;;3.10;2.90;;;24.70;39.40;;;;;;20767;6839;118269;-84
2022/07/19 05:48:13;;;;;;;3.30;3.10;;;24.70;39.00;;;;;;20565;6839;309386;-84
2022/07/19 05:50:39;;;;;;;3.13;2.87;;;25.00;39.20;;;;;;20763;6839;118401;-83
2022/07/19 05:53:06;;;;;;;3.10;2.90;;;24.70;39.10;;;;;;20766;6837;117534;-84
2022/07/19 05:55:32;;;;;;;4.10;3.03;;;24.70;39.10;;;;;;20779;6838;116957;-84
2022/07/19 05:57:57;;;;;;;2.97;2.77;;;24.60;39.40;;;;;;20770;6839;118144;-84
2022/07/19 06:00:23;;;;;;;3.47;3.20;;;24.50;39.60;;;;;;20566;6839;310182;-84
2022/07/19 06:02:48;;;;;;;3.00;2.80;;;24.80;40.00;;;;;;20775;6839;117238;-85
2022/07/19 06:05:16;;;;;;;3.70;3.40;;;24.80;40.00;;;;;;20791;6839;117114;-84
2022/07/19 06:07:41;;;;;;;3.70;3.40;;;24.80;39.90;;;;;;20560;6839;277523;-85
2022/07/19 06:10:07;;;;;;;4.10;3.30;;;25.10;40.10;;;;;;20564;6839;311146;-86
2022/07/19 06:12:32;;;;;;;5.80;3.50;;;25.60;39.60;;;;;;20759;6839;126957;-86
2022/07/19 06:14:58;;;;;;;4.30;3.27;;;25.60;39.40;;;;;;20777;6839;117189;-86
2022/07/19 06:17:24;;;;;;;4.22;3.42;;;25.50;39.60;;;;;;20560;6839;307674;-86
2022/07/19 06:19:49;;;;;;;3.67;3.37;;;25.80;39.50;;;;;;20784;6839;120284;-88
2022/07/19 06:22:15;;;;;;;3.60;3.30;;;25.90;39.10;;;;;;20789;6839;117213;-86
2022/07/19 06:24:40;;;;;;;3.47;3.28;;;25.90;39.00;;;;;;20538;6839;278350;-87
2022/07/19 06:27:06;;;;;;;3.87;3.37;;;26.30;38.20;;;;;;20562;6839;307870;-88
2022/07/19 06:29:32;;;;;;;3.15;3.05;;;27.10;37.40;;;;;;20779;6839;117385;-86
2022/07/19 06:31:58;;;;;;;3.30;3.10;;;27.10;37.30;;;;;;20770;6839;118682;-88
2022/07/19 06:34:23;;;;;;;3.60;3.40;;;27.50;37.50;;;;;;20757;6839;117979;-87
2022/07/19 06:36:50;;;;;;;3.60;3.37;;;28.50;36.70;;;;;;20777;6839;119431;-87
2022/07/19 06:39:15;;;;;;;3.70;3.40;;;28.40;36.60;;;;;;20554;6839;278365;-87
2022/07/19 06:41:42;;;;;;;3.90;3.30;;;30.50;32.80;;;;;;20545;6839;312418;-87
2022/07/19 06:44:07;;;;;;;3.67;3.40;;;30.50;32.20;;;;;;20764;6839;117079;-89
2022/07/19 06:46:33;;;;;;;5.10;3.27;;;31.10;32.40;;;;;;20547;6839;279873;-88
2022/07/19 06:48:58;;;;;;;3.40;3.10;;;31.80;31.10;;;;;;20564;6839;277833;-87
2022/07/19 06:51:24;;;;;;;3.20;2.90;;;32.60;30.00;;;;;;20562;6839;281201;-88
2022/07/19 06:53:49;;;;;;;3.53;3.20;;;33.40;28.90;;;;;;20559;6839;308647;-88
2022/07/19 06:56:15;;;;;;;3.73;3.23;;;34.00;28.70;;;;;;20564;6839;277843;-88
2022/07/19 06:58:41;;;;;;;3.63;3.40;;;34.40;28.40;;;;;;20546;6839;336633;-89
2022/07/19 07:01:06;;;;;;;3.50;3.30;;;34.80;28.00;;;;;;20782;6839;120372;-87
2022/07/19 07:03:32;;;;;;;3.60;3.30;;;34.80;28.40;;;;;;20560;6837;297105;-87
2022/07/19 07:05:57;;;;;;;4.43;3.23;;;35.00;27.90;;;;;;20772;6838;117016;-89
2022/07/19 07:08:24;;;;;;;6.03;3.30;;;35.40;27.80;;;;;;20565;6839;279356;-88
2022/07/19 07:10:49;;;;;;;2.90;2.70;;;35.40;27.70;;;;;;20597;6839;117642;-88
2022/07/19 07:13:15;;;;;;;4.45;3.22;;;35.50;27.90;;;;;;20561;6839;308076;-87
2022/07/19 07:15:43;;;;;;;3.20;3.00;;;35.70;27.80;;;;;;20784;6839;117599;-87
2022/07/19 07:18:08;;;;;;;4.70;3.30;;;35.70;27.80;;;;;;20558;6839;307393;-88
2022/07/19 07:20:34;;;;;;;4.25;3.28;;;36.00;28.10;;;;;;20545;6839;311637;-88
2022/07/19 07:23:00;;;;;;;3.83;3.20;;;35.90;28.00;;;;;;20571;6839;279880;-88
2022/07/19 07:25:25;;;;;;;4.07;3.20;;;36.00;27.90;;;;;;20768;6839;118632;-88
2022/07/19 07:27:52;;;;;;;3.43;3.20;;;35.30;28.30;;;;;;20773;6839;117534;-88
2022/07/19 07:30:17;;;;;;;8.40;3.33;;;35.30;28.30;;;;;;20770;6839;117273;-88
2022/07/19 07:32:43;;;;;;;6.03;3.20;;;34.90;28.60;;;;;;20546;6839;436705;-88
2022/07/19 07:35:09;;;;;;;3.60;3.10;;;34.90;28.80;;;;;;20780;6839;117568;-87
2022/07/19 07:37:35;;;;;;;6.17;2.90;;;34.90;28.80;;;;;;20776;6839;118302;-86
2022/07/19 07:40:00;;;;;;;4.70;3.10;;;34.70;28.90;;;;;;20565;6839;278230;-87
2022/07/19 07:42:26;;;;;;;4.07;3.10;;;34.80;28.60;;;;;;20545;6839;277266;-87
2022/07/19 07:44:51;;;;;;;3.37;3.07;;;35.10;29.10;;;;;;20565;6839;278364;-86
2022/07/19 07:47:18;;;;;;;4.13;3.17;;;35.60;28.40;;;;;;20560;6839;307237;-87
2022/07/19 07:49:43;;;;;;;3.10;2.80;;;35.50;28.30;;;;;;20557;6839;337478;-87
2022/07/19 07:52:10;;;;;;;3.43;3.00;;;35.60;26.70;;;;;;20568;6839;280364;-87
2022/07/19 07:54:36;;;;;;;5.23;2.80;;;35.70;27.70;;;;;;20754;6839;118634;-87
2022/07/19 07:57:01;;;;;;;4.07;3.07;;;35.40;27.60;;;;;;20780;6839;117286;-87
2022/07/19 07:59:27;;;;;;;3.30;2.30;;;35.20;27.90;;;;;;20560;6839;277945;-87
2022/07/19 08:01:53;;;;;;;2.70;2.50;;;35.20;26.00;;;;;;20561;6839;307923;-88
2022/07/19 08:04:18;;;;;;;2.50;2.30;;;35.50;25.10;;;;;;20777;6839;117090;-87
2022/07/19 08:06:44;;;;;;;2.83;2.20;;;35.30;24.80;;;;;;20544;6839;281649;-87
2022/07/19 08:09:09;;;;;;;2.97;2.27;;;35.30;24.70;;;;;;20769;6839;117828;-87
2022/07/19 08:11:36;;;;;;;2.60;2.40;;;35.00;24.80;;;;;;20775;6839;117019;-87
2022/07/19 08:14:01;;;;;;;2.80;2.00;;;35.00;24.80;;;;;;20777;6839;117027;-87
2022/07/19 08:16:27;;;;;;;2.70;2.50;;;34.80;25.30;;;;;;20756;6837;117178;-87
2022/07/19 08:18:52;;;;;;;3.13;2.30;;;34.80;25.10;;;;;;20556;6839;307877;-87
2022/07/19 08:21:19;;;;;;;3.40;2.30;;;35.50;22.80;;;;;;20571;6839;306854;-87
2022/07/19 08:23:44;;;;;;;2.30;2.10;;;35.50;22.80;;;;;;20568;6839;307832;-87
2022/07/19 08:26:10;;;;;;;3.77;2.23;;;35.60;22.90;;;;;;20781;6839;119208;-87
2022/07/19 08:28:36;;;;;;;2.30;2.10;;;35.60;22.90;;;;;;20547;6839;307775;-87
2022/07/19 08:31:02;;;;;;;2.50;2.30;;;35.60;23.30;;;;;;20773;6839;120418;-87
2022/07/19 08:33:28;;;;;;;2.97;2.40;;;35.60;23.30;;;;;;20774;6839;117049;-87
2022/07/19 08:35:54;;;;;;;2.40;2.30;;;35.40;23.40;;;;;;20571;6839;309397;-87
2022/07/19 08:38:20;;;;;;;4.03;2.50;;;35.50;22.60;;;;;;20782;6839;118252;-87
2022/07/19 08:40:46;;;;;;;2.37;2.17;;;35.50;22.90;;;;;;20549;6839;307157;-86
2022/07/19 08:43:11;;;;;;;3.07;2.30;;;35.60;23.30;;;;;;20821;6839;118193;-88
2022/07/19 08:45:37;;;;;;;3.57;2.20;;;35.60;23.30;;;;;;20626;6839;306173;-87
2022/07/19 08:48:04;;;;;;;3.10;2.40;;;35.90;23.90;;;;;;20630;6839;308195;-88
2022/07/19 08:50:29;;;;;;;5.03;2.20;;;36.10;22.70;;;;;;20840;6839;118332;-88
2022/07/19 08:52:56;;;;;;;2.40;2.30;;;36.10;23.20;;;;;;20856;6839;66541;-87
2022/07/19 08:55:20;;;;;;;2.77;2.33;;;35.90;23.50;;;;;;20849;6839;116536;-87
2022/07/19 08:58:02;;;;;;;4.77;2.40;;;35.80;24.00;;;;;;20848;6839;116244;-87
2022/07/19 09:00:28;;;;;;;3.00;2.63;;;35.70;24.10;;;;;;20836;6839;147520;-88
2022/07/19 09:02:57;;;;;;;2.87;2.67;;;35.70;23.90;;;;;;20854;6840;66318;-88
2022/07/19 09:05:22;;;;;;;3.30;2.40;;;35.60;23.90;;;;;;20635;6840;276539;-87
2022/07/19 09:07:58;;;;;;;10.73;10.00;;;35.90;24.40;;;;;;20601;6848;280121;-87
2022/07/19 09:10:24;;;;;;;2.70;2.47;;;36.30;23.60;;;;;;20418;6847;279467;-87
2022/07/19 09:13:09;;;;;;;2.80;2.60;;;36.80;22.90;;;;;;20523;6853;337918;-87
2022/07/19 09:15:53;;;;;;;2.63;2.50;;;37.00;22.90;;;;;;20757;6846;117170;-87
2022/07/19 09:18:18;;;;;;;2.70;2.40;;;36.90;22.90;;;;;;20574;6831;308673;-87
2022/07/19 09:20:43;;;;;;;5.10;2.93;;;37.10;22.70;;;;;;20781;6831;118210;-87
2022/07/19 09:23:09;;;;;;;2.87;2.40;;;37.10;22.60;;;;;;20592;6831;307495;-87
2022/07/19 09:25:37;;;;;;;2.60;2.40;;;37.20;23.10;;;;;;20573;6831;280088;-87
2022/07/19 09:28:03;;;;;;;4.43;2.60;;;37.40;21.20;;;;;;20567;6830;278126;-87
2022/07/19 09:30:34;;;;;;;2.90;2.70;;;37.50;19.70;;;;;;20786;6830;118824;-87
2022/07/19 09:33:06;;;;;;;2.80;2.40;;;37.30;20.40;;;;;;20574;6830;309315;-87
2022/07/19 09:35:45;;;;;;;20.03;3.10;;;37.30;19.40;;;;;;20590;6830;294432;-87
2022/07/19 09:38:18;;;;;;;3.83;2.60;;;37.40;19.40;;;;;;20553;6831;298786;-87
2022/07/19 09:40:44;;;;;;;3.43;2.40;;;37.50;19.60;;;;;;20745;6845;117450;-90
2022/07/19 09:43:09;;;;;;;2.77;2.47;;;37.40;19.80;;;;;;20540;6845;290357;-87
2022/07/19 09:45:36;;;;;;;3.43;2.60;;;37.30;18.70;;;;;;20542;6845;308131;-87
2022/07/19 09:48:03;;;;;;;5.07;2.80;;;37.30;18.70;;;;;;20540;6846;295175;-86
2022/07/19 09:50:27;;;;;;;2.73;2.53;;;37.40;19.30;;;;;;20718;6846;120382;-87
2022/07/19 09:52:52;;;;;;;5.23;2.57;;;37.20;19.40;;;;;;20738;6846;117361;-88
2022/07/19 09:55:18;;;;;;;2.60;2.50;;;37.00;19.60;;;;;;20708;6861;117297;-87
2022/07/19 09:57:44;;;;;;;4.10;2.80;;;36.80;19.50;;;;;;20507;6858;307651;-88
2022/07/19 10:00:11;;;;;;;2.63;2.30;;;36.90;19.10;;;;;;20748;6846;117328;-86
2022/07/19 10:02:36;;;;;;;3.00;2.80;;;36.90;19.60;;;;;;20479;6858;281256;-87
2022/07/19 10:05:01;;;;;;;2.60;2.20;;;37.10;19.70;;;;;;20538;6846;278942;-88
2022/07/19 10:07:29;;;;;;;2.80;2.60;;;37.30;19.40;;;;;;20693;6858;120801;-89
2022/07/19 10:09:54;;;;;;;2.60;2.37;;;37.30;19.40;;;;;;20561;6836;307942;-89
2022/07/19 10:12:22;;;;;;;2.67;2.45;;;37.60;19.00;;;;;;20513;6854;307346;-90
2022/07/19 10:14:49;;;;;;;2.90;2.50;;;37.60;18.90;;;;;;20705;6854;119592;-88
2022/07/19 10:17:24;;;;;;;2.83;2.43;;;37.50;19.10;;;;;;20723;6854;118723;-89
2022/07/19 10:19:49;;;;;;;2.70;2.50;;;37.40;19.20;;;;;;20729;6854;118258;-89
2022/07/19 10:22:15;;;;;;;3.30;2.85;;;37.20;19.10;;;;;;20512;6854;310568;-88
2022/07/19 10:25:03;;;;;;;3.13;2.80;;;37.20;18.80;;;;;;20691;6854;170097;-87
2022/07/19 10:27:32;;;;;;;2.80;2.60;;;37.20;18.80;;;;;;20750;6828;117874;-91
2022/07/19 10:29:58;;;;;;;3.13;2.60;;;37.10;19.00;;;;;;20576;6828;278131;-90
2022/07/19 10:32:30;;;;;;;2.83;2.67;;;37.20;19.10;;;;;;20559;6839;341331;-88
2022/07/19 10:35:19;;;;;;;3.15;2.80;;;37.50;18.70;;;;;;20298;6876;339859;-90
2022/07/19 10:37:45;;;;;;;2.80;2.60;;;38.00;18.60;;;;;;20529;6845;307288;-88
2022/07/19 10:40:11;;;;;;;3.47;2.80;;;37.90;18.50;;;;;;20675;6861;118464;-90
2022/07/19 10:42:36;;;;;;;6.37;3.00;;;37.90;18.80;;;;;;20763;6835;117182;-88
2022/07/19 10:45:02;;;;;;;6.47;2.90;;;37.60;18.70;;;;;;20554;6835;307750;-89
2022/07/19 10:47:31;;;;;;;3.87;2.80;;;37.70;18.80;;;;;;20553;6835;339615;-87
2022/07/19 10:50:01;;;;;;;3.20;2.90;;;37.80;18.70;;;;;;20497;6850;338592;-90
2022/07/19 10:52:26;;;;;;;3.30;3.10;;;38.00;18.10;;;;;;20480;6860;290495;-88
2022/07/19 10:55:22;;;;;;;3.10;2.80;;;38.00;18.70;;;;;;20752;6842;118442;-88
2022/07/19 10:57:45;;;;;;;3.10;2.80;;;37.90;18.60;;;;;;20734;6845;117127;-88
2022/07/19 11:00:21;;;;;;;3.60;3.30;;;37.70;18.60;;;;;;20501;6845;310453;-88
2022/07/19 11:02:46;;;;;;;4.13;2.80;;;37.70;18.80;;;;;;20769;6830;119046;-88
2022/07/19 11:05:24;;;;;;;3.30;3.00;;;37.60;18.80;;;;;;20619;6830;292005;-87
2022/07/19 11:07:50;;;;;;;3.70;3.13;;;37.60;19.40;;;;;;20601;6830;307572;-90
2022/07/19 11:10:26;;;;;;;5.12;3.30;;;37.80;19.00;;;;;;20813;6830;117387;-88
2022/07/19 11:12:51;;;;;;;4.23;3.10;;;37.80;18.70;;;;;;20582;6830;306719;-88
2022/07/19 11:15:17;;;;;;;4.43;3.07;;;37.80;17.90;;;;;;20596;6830;310361;-88
2022/07/19 11:17:49;;;;;;;3.17;2.90;;;37.90;18.10;;;;;;20777;6830;122485;-89
2022/07/19 11:20:16;;;;;;;3.27;2.97;;;37.90;18.10;;;;;;20563;6830;280536;-86
2022/07/19 11:22:41;;;;;;;4.87;3.10;;;37.90;17.70;;;;;;20729;6830;119842;-88
2022/07/19 11:25:07;;;;;;;3.80;3.20;;;37.70;17.80;;;;;;20738;6845;117834;-87
2022/07/19 11:27:33;;;;;;;7.47;3.00;;;37.40;18.40;;;;;;20756;6840;117189;-88
2022/07/19 11:29:58;;;;;;;3.10;2.90;;;37.20;18.90;;;;;;20767;6840;117142;-88
2022/07/19 11:32:24;;;;;;;3.23;2.93;;;37.20;19.20;;;;;;20539;6840;307490;-88
2022/07/19 11:34:53;;;;;;;5.20;3.27;;;37.40;19.60;;;;;;20563;6840;277704;-88
2022/07/19 11:37:26;;;;;;;3.40;3.10;;;37.70;18.30;;;;;;20550;6840;310376;-88
2022/07/19 11:39:51;;;;;;;4.97;3.17;;;37.90;18.70;;;;;;20553;6840;301359;-87
2022/07/19 11:42:37;;;;;;;3.83;3.17;;;37.90;19.10;;;;;;20768;6840;118484;-87
2022/07/19 11:45:12;;;;;;;3.33;2.90;;;37.80;19.00;;;;;;19705;7183;119455;-86
2022/07/19 11:47:47;;;;;;;3.03;2.83;;;37.60;18.80;;;;;;20782;6825;119532;-87
2022/07/19 11:50:15;;;;;;;3.20;2.90;;;37.40;19.20;;;;;;20778;6823;121150;-89
2022/07/19 11:52:42;;;;;;;4.67;3.33;;;37.20;20.00;;;;;;20797;6824;117555;-88
2022/07/19 11:55:08;;;;;;;3.40;3.10;;;37.10;19.40;;;;;;20819;6825;120422;-89
2022/07/19 11:57:33;;;;;;;3.90;3.27;;;37.10;19.30;;;;;;20602;6825;306923;-88
2022/07/19 11:59:59;;;;;;;4.70;2.97;;;37.20;18.80;;;;;;20821;6825;117104;-89
2022/07/19 12:02:24;;;;;;;5.43;3.43;;;37.30;19.10;;;;;;20810;6825;118441;-89
2022/07/19 12:04:50;;;;;;;5.83;2.90;;;37.30;19.30;;;;;;20700;6825;117575;-89
2022/07/19 12:07:16;;;;;;;4.85;2.92;;;37.20;19.50;;;;;;20834;6825;119012;-88
2022/07/19 12:09:42;;;;;;;5.67;3.10;;;37.20;19.50;;;;;;20818;6825;117364;-88
2022/07/19 12:12:14;;;;;;;12.80;3.10;;;37.20;19.40;;;;;;20817;6825;117167;-88
2022/07/19 12:14:40;;;;;;;5.03;3.23;;;37.20;19.10;;;;;;20588;6825;280116;-88
2022/07/19 12:17:16;;;;;;;5.87;3.28;;;37.50;19.30;;;;;;20605;6825;307753;-88
2022/07/19 12:19:42;;;;;;;4.50;2.87;;;37.50;18.80;;;;;;20817;6825;118365;-89
2022/07/19 12:22:28;;;;;;;4.33;3.10;;;37.50;19.40;;;;;;20600;6825;281307;-88
2022/07/19 12:24:53;;;;;;;3.62;2.92;;;37.60;19.70;;;;;;20817;6825;120033;-88
2022/07/19 12:27:20;;;;;;;3.45;3.17;;;37.60;19.20;;;;;;20836;6825;117163;-89
2022/07/19 12:29:44;;;;;;;4.53;3.50;;;37.40;19.30;;;;;;20826;6825;117657;-88
2022/07/19 12:32:29;;;;;;;3.37;2.90;;;37.20;19.80;;;;;;20613;6825;308239;-88